createdAt,value
2022-09-23T00:02:13.262Z,5.63
2022-09-23T00:06:22.616Z,9.38
2022-09-23T00:10:25.996Z,6.28
2022-09-23T00:14:27.607Z,5.85
2022-09-23T00:18:28.965Z,7.32
2022-09-23T00:22:30.482Z,5.65
2022-09-23T00:26:31.849Z,4.97
2022-09-23T00:30:33.602Z,6.53
2022-09-23T00:34:34.977Z,7.22
2022-09-23T00:38:37.122Z,4.53
2022-09-23T00:42:46.297Z,4.22
2022-09-23T00:46:47.627Z,6.03
2022-09-23T00:50:51.412Z,4.47
2022-09-23T00:54:55.272Z,4.93
2022-09-23T00:58:56.760Z,6.50
2022-09-23T01:02:58.135Z,4.72
2022-09-23T01:06:59.473Z,6.43
2022-09-23T01:11:24.922Z,4.97
2022-09-23T01:15:40.941Z,5.13
2022-09-23T01:20:13.822Z,7.60
2022-09-23T01:24:37.916Z,6.03
2022-09-23T01:29:02.395Z,5.30
2022-09-23T01:33:11.410Z,4.75
2022-09-23T01:37:24.748Z,6.43
2022-09-23T01:41:51.500Z,6.18
2022-09-23T01:45:56.518Z,5.97
2022-09-23T01:50:24.682Z,5.10
2022-09-23T01:54:54.378Z,5.18
2022-09-23T01:59:06.204Z,5.13
2022-09-23T02:03:32.319Z,5.43
2022-09-23T02:07:39.031Z,5.82
2022-09-23T02:11:42.028Z,5.70
2022-09-23T02:15:56.928Z,8.13
2022-09-23T02:20:02.705Z,6.22
2022-09-23T02:24:15.452Z,5.75
2022-09-23T02:28:22.516Z,7.68
2022-09-23T02:32:48.698Z,8.80
2022-09-23T02:37:08.376Z,4.85
2022-09-23T02:41:25.202Z,4.38
2022-09-23T02:45:26.937Z,7.50
2022-09-23T02:49:30.205Z,6.30
2022-09-23T02:53:34.972Z,5.47
2022-09-23T02:57:36.362Z,6.82
2022-09-23T03:02:14.157Z,5.53
2022-09-23T03:06:28.801Z,7.57
2022-09-23T03:10:36.340Z,7.47
2022-09-23T03:14:49.416Z,5.82
2022-09-23T03:19:07.768Z,10.32
2022-09-23T03:23:10.977Z,6.45
2022-09-23T03:27:17.794Z,7.97
2022-09-23T03:31:19.521Z,5.15
2022-09-23T03:35:24.281Z,6.05
2022-09-23T03:39:43.290Z,4.97
2022-09-23T03:43:45.194Z,5.30
2022-09-23T03:47:47.068Z,6.97
2022-09-23T03:51:48.430Z,6.32
2022-09-23T03:55:49.801Z,5.72
2022-09-23T03:59:51.996Z,7.82
2022-09-23T04:03:53.584Z,7.07
2022-09-23T04:07:54.985Z,12.27
2022-09-23T04:11:56.412Z,6.88
2022-09-23T04:15:58.063Z,7.13
2022-09-23T04:19:59.484Z,5.18
2022-09-23T04:24:01.286Z,8.70
2022-09-23T04:28:02.668Z,14.82
2022-09-23T04:32:04.072Z,6.47
2022-09-23T04:36:05.696Z,8.30
2022-09-23T04:40:08.107Z,8.77
2022-09-23T04:44:11.521Z,8.52
2022-09-23T04:48:13.901Z,8.98
2022-09-23T04:52:15.387Z,6.60
2022-09-23T04:56:22.265Z,8.10
2022-09-23T05:00:24.864Z,7.70
2022-09-23T05:04:26.321Z,6.35
2022-09-23T05:08:28.457Z,9.32
2022-09-23T05:12:29.920Z,7.03
2022-09-23T05:16:31.442Z,6.60
2022-09-23T05:20:32.816Z,5.85
2022-09-23T05:24:34.242Z,6.13
2022-09-23T05:28:37.427Z,7.47
2022-09-23T05:32:38.763Z,9.48
2022-09-23T05:36:40.091Z,8.45
2022-09-23T05:40:41.492Z,9.07
2022-09-23T05:44:42.968Z,9.40
2022-09-23T05:48:48.011Z,8.13
2022-09-23T05:52:49.345Z,6.43
2022-09-23T05:56:50.727Z,6.18
2022-09-23T06:00:52.087Z,6.90
2022-09-23T06:04:53.490Z,6.70
2022-09-23T06:08:55.125Z,7.70
2022-09-23T06:12:56.569Z,8.15
2022-09-23T06:16:57.951Z,8.57
2022-09-23T06:21:03.086Z,6.35
2022-09-23T06:25:04.788Z,6.75
2022-09-23T06:29:11.829Z,7.95
2022-09-23T06:33:14.517Z,8.30
2022-09-23T06:37:20.292Z,6.80
2022-09-23T06:41:22.156Z,6.60
2022-09-23T06:45:23.515Z,8.45
2022-09-23T06:49:24.884Z,6.28
2022-09-23T06:53:26.231Z,7.30
2022-09-23T06:57:31.519Z,6.35
2022-09-23T07:01:33.386Z,8.77
2022-09-23T07:05:35.155Z,5.63
2022-09-23T07:09:37.261Z,7.35
2022-09-23T07:13:40.930Z,7.80
2022-09-23T07:17:43.092Z,7.32
2022-09-23T07:21:44.600Z,5.65
2022-09-23T07:25:46.855Z,6.97
2022-09-23T07:29:49.135Z,6.55
2022-09-23T07:33:56.426Z,4.70
2022-09-23T07:37:57.928Z,5.68
2022-09-23T07:41:59.715Z,4.82
2022-09-23T07:46:03.610Z,5.95
2022-09-23T07:50:06.176Z,5.35
2022-09-23T07:54:10.632Z,7.55
2022-09-23T07:58:11.983Z,8.30
2022-09-23T08:02:15.458Z,12.55
2022-09-23T08:06:16.916Z,7.05
2022-09-23T08:10:20.762Z,6.00
2022-09-23T08:14:25.166Z,5.57
2022-09-23T08:18:26.733Z,5.57
2022-09-23T08:22:28.114Z,3.83
2022-09-23T08:26:29.529Z,10.23
2022-09-23T08:30:31.027Z,8.13
2022-09-23T08:34:32.410Z,4.80
2022-09-23T08:38:33.948Z,4.55
2022-09-23T08:42:36.334Z,4.95
2022-09-23T08:46:46.662Z,3.97
2022-09-23T08:50:52.189Z,5.18
2022-09-23T08:54:55.575Z,4.22
2022-09-23T08:59:05.205Z,5.78
2022-09-23T09:03:22.860Z,3.42
2022-09-23T09:11:48.536Z,6.57
2022-09-23T09:16:05.704Z,3.28
2022-09-23T09:20:45.356Z,4.07
2022-09-23T09:24:48.940Z,14.55
2022-09-23T09:29:16.820Z,4.53
2022-09-23T09:33:32.413Z,3.25
2022-09-23T09:37:41.798Z,4.15
2022-09-23T09:41:48.884Z,2.80
2022-09-23T09:46:09.126Z,6.37
2022-09-23T09:50:19.123Z,6.32
2022-09-23T09:54:24.617Z,2.22
2022-09-23T09:58:32.509Z,3.85
2022-09-23T10:02:37.024Z,6.47
2022-09-23T10:06:38.431Z,5.00
2022-09-23T10:10:51.796Z,3.95
2022-09-23T10:14:57.533Z,4.95
2022-09-23T10:19:00.434Z,5.95
2022-09-23T10:23:07.644Z,4.65
2022-09-23T10:27:11.925Z,1.85
2022-09-23T10:31:24.946Z,4.53
2022-09-23T10:35:26.997Z,3.22
2022-09-23T10:39:47.158Z,5.63
2022-09-23T10:44:16.413Z,3.60
2022-09-23T10:48:35.898Z,4.38
2022-09-23T10:52:59.370Z,4.63
2022-09-23T10:57:30.024Z,4.03
2022-09-23T11:01:59.159Z,3.35
2022-09-23T11:06:06.677Z,4.38
2022-09-23T11:10:44.846Z,5.53
2022-09-23T11:15:16.602Z,7.38
2022-09-23T11:19:45.655Z,24.83
2022-09-23T11:23:57.675Z,7.63
2022-09-23T11:28:30.990Z,5.93
2022-09-23T11:32:40.610Z,4.88
2022-09-23T11:36:48.735Z,3.92
2022-09-23T11:40:54.847Z,3.70
2022-09-23T11:45:18.947Z,4.07
2022-09-23T11:49:42.499Z,4.20
2022-09-23T11:53:48.389Z,4.82
2022-09-23T11:58:23.943Z,5.95
2022-09-23T12:02:55.464Z,4.30
2022-09-23T12:07:05.875Z,7.40
2022-09-23T12:12:27.219Z,5.95
2022-09-23T12:17:22.386Z,5.70
2022-09-23T12:22:36.590Z,7.95
2022-09-23T12:43:27.312Z,6.18
2022-09-23T12:47:43.564Z,6.55
2022-09-23T13:20:17.613Z,9.13
2022-09-23T13:25:02.674Z,7.47
2022-09-23T13:39:24.889Z,7.38
2022-09-23T13:43:42.636Z,6.93
2022-09-23T13:47:45.535Z,7.00
2022-09-23T13:51:46.990Z,5.78
2022-09-23T13:56:02.833Z,5.45
2022-09-23T14:00:19.398Z,6.30
2022-09-23T14:04:25.515Z,5.07
2022-09-23T14:08:28.728Z,5.93
2022-09-23T14:12:30.234Z,7.63
2022-09-23T14:16:32.039Z,6.90
2022-09-23T14:20:45.488Z,8.48
2022-09-23T14:24:47.158Z,8.88
2022-09-23T14:28:48.732Z,7.80
2022-09-23T14:32:51.205Z,9.63
2022-09-23T14:37:11.080Z,10.95
2022-09-23T14:41:21.905Z,8.25
2022-09-23T14:45:28.804Z,6.28
2022-09-23T14:49:30.336Z,6.67
2022-09-23T14:53:42.530Z,7.57
2022-09-23T14:57:45.156Z,6.00
2022-09-23T15:01:46.769Z,6.93
2022-09-23T15:05:49.955Z,9.55
2022-09-23T15:09:52.640Z,6.72
2022-09-23T15:13:55.255Z,8.07
2022-09-23T15:18:05.090Z,5.40
2022-09-23T15:22:08.709Z,6.47
2022-09-23T15:26:17.309Z,7.78
2022-09-23T15:30:20.171Z,6.57
2022-09-23T15:34:22.742Z,10.63
2022-09-23T15:38:24.570Z,7.10
2022-09-23T15:42:25.934Z,7.55
2022-09-23T15:46:28.310Z,6.45
2022-09-23T15:50:33.682Z,5.68
2022-09-23T15:54:35.248Z,10.20
2022-09-23T15:58:36.942Z,5.43
2022-09-23T16:02:38.571Z,9.18
2022-09-23T16:06:43.510Z,8.57
2022-09-23T16:10:44.883Z,8.43
2022-09-23T16:14:46.510Z,6.80
2022-09-23T16:18:50.024Z,7.93
2022-09-23T16:23:04.897Z,6.65
2022-09-23T16:27:07.899Z,7.75
2022-09-23T16:31:11.240Z,7.80
2022-09-23T16:35:13.021Z,9.98
2022-09-23T16:39:14.963Z,6.05
2022-09-23T16:43:16.674Z,6.03
2022-09-23T16:47:18.088Z,8.65
2022-09-23T16:51:21.932Z,7.30
2022-09-23T16:55:25.775Z,10.25
2022-09-23T16:59:47.330Z,7.90
2022-09-23T17:03:49.154Z,6.50
2022-09-23T17:07:50.629Z,6.85
2022-09-23T17:12:10.468Z,7.43
2022-09-23T17:16:22.349Z,7.93
2022-09-23T17:20:24.954Z,6.07
2022-09-23T17:24:26.611Z,8.27
2022-09-23T17:28:29.057Z,9.32
2022-09-23T17:32:30.851Z,8.50
2022-09-23T17:36:32.237Z,6.95
2022-09-23T17:40:35.830Z,7.50
2022-09-23T17:44:37.454Z,6.63
2022-09-23T17:48:41.592Z,7.60
2022-09-23T17:52:43.247Z,8.27
2022-09-23T17:56:44.662Z,7.45
2022-09-23T18:00:47.860Z,6.22
2022-09-23T18:04:49.725Z,8.95
2022-09-23T18:08:51.648Z,12.48
2022-09-23T18:12:53.097Z,8.25
2022-09-23T18:16:54.709Z,8.18
2022-09-23T18:21:02.823Z,11.43
2022-09-23T18:25:22.709Z,7.00
2022-09-23T18:29:28.249Z,9.98
2022-09-23T18:33:29.660Z,8.55
2022-09-23T18:37:31.296Z,9.73
2022-09-23T18:41:33.287Z,10.07
2022-09-23T18:45:35.095Z,10.70
2022-09-23T18:49:56.407Z,10.23
2022-09-23T18:53:59.954Z,10.38
2022-09-23T18:58:04.991Z,9.77
2022-09-23T19:02:06.855Z,10.18
2022-09-23T19:06:21.261Z,12.13
2022-09-23T19:10:24.066Z,11.18
2022-09-23T19:14:25.529Z,10.57
2022-09-23T19:18:29.043Z,11.77
2022-09-23T19:22:32.922Z,9.18
2022-09-23T19:26:37.962Z,14.00
2022-09-23T19:30:40.375Z,9.38
2022-09-23T19:34:43.624Z,11.85
2022-09-23T19:38:45.178Z,9.40
2022-09-23T19:42:47.679Z,13.55
2022-09-23T19:46:55.185Z,8.57
2022-09-23T19:50:58.121Z,10.38
2022-09-23T19:55:00.058Z,10.13
2022-09-23T19:59:03.187Z,7.78
2022-09-23T20:03:04.856Z,9.00
2022-09-23T20:07:06.548Z,9.65
2022-09-23T20:11:12.318Z,14.55
2022-09-23T20:15:13.781Z,18.45
2022-09-23T20:19:16.246Z,19.58
2022-09-23T20:23:17.957Z,18.42
2022-09-23T20:27:19.519Z,12.27
2022-09-23T20:31:23.677Z,10.93
2022-09-23T20:35:25.874Z,14.00
2022-09-23T20:39:28.539Z,12.13
2022-09-23T20:43:30.109Z,11.15
2022-09-23T20:47:31.493Z,13.05
2022-09-23T20:51:35.623Z,9.35
2022-09-23T20:55:37.157Z,18.40
2022-09-23T20:59:39.375Z,16.30
2022-09-23T21:03:42.987Z,16.70
2022-09-23T21:07:47.597Z,16.77
2022-09-23T21:11:49.908Z,10.65
2022-09-23T21:15:51.747Z,9.82
2022-09-23T21:19:53.175Z,11.70
2022-09-23T21:24:07.024Z,10.18
2022-09-23T21:28:17.259Z,9.50
2022-09-23T21:32:18.804Z,13.10
2022-09-23T21:36:20.602Z,12.27
2022-09-23T21:40:40.878Z,11.90
2022-09-23T21:44:42.381Z,10.73
2022-09-23T21:48:44.142Z,14.15
2022-09-23T21:52:46.450Z,10.63
2022-09-23T21:56:48.014Z,13.18
2022-09-23T22:00:50.049Z,9.00
2022-09-23T22:04:51.554Z,16.10
2022-09-23T22:09:01.669Z,11.23
2022-09-23T22:13:03.694Z,11.57
2022-09-23T22:17:07.202Z,9.88
2022-09-23T22:21:08.840Z,12.02
2022-09-23T22:25:12.746Z,10.77
2022-09-23T22:29:34.068Z,10.70
2022-09-23T22:33:35.803Z,9.45
2022-09-23T22:37:38.005Z,12.18
2022-09-23T22:41:39.497Z,13.75
2022-09-23T22:45:49.636Z,10.77
2022-09-23T22:49:54.688Z,11.15
2022-09-23T22:53:56.132Z,10.13
2022-09-23T22:57:57.565Z,11.85
2022-09-23T23:02:00.422Z,8.25
2022-09-23T23:06:02.903Z,10.77
2022-09-23T23:10:05.082Z,12.05
2022-09-23T23:14:07.091Z,10.95
2022-09-23T23:18:09.091Z,14.25
2022-09-23T23:22:10.556Z,9.02
2022-09-23T23:26:14.965Z,9.32
2022-09-23T23:30:19.978Z,8.80
2022-09-23T23:34:21.708Z,9.88
2022-09-23T23:38:25.931Z,10.00
2022-09-23T23:42:27.362Z,7.97
2022-09-23T23:46:30.528Z,7.68
2022-09-23T23:50:35.694Z,7.85
2022-09-23T23:54:37.909Z,12.10
2022-09-23T23:58:41.276Z,6.65
